^^
Your Local Weather - Clay, NY Station Historical Data
Daily Summary for January 25, 2017 Units:  English    Metric   Both
« Previous Day
Next Day »
Daily Weekly Monthly Yearly Custom
  High: Low: Average:
Temperature: 37.9 °F 28.7 °F 33.3 °F
Dew Point: 34.7 °F 26.3 °F 31.1 °F
Humidity: 94% 87% 91%
Wind Speed: 3.0mph 0.0mph 1.1mph
Wind Gust: 8.0mph - -
Wind- - WSW
Pressure: 29.67 in 29.42 in -
Precipitation: 0.15 in    
Historical Graphs
 
 
Tabular Data for January 25, 2017
Time Temperature Dew Point Pressure Wind Wind Speed Wind Gust Humidity Rainfall Rate (Hourly) solar
00:02 28.9 °F 26.3 °F 29.62 in NW 1.0 mph 2.0 mph 90% 0.00 in 0 W/m2
00:08 28.9 °F 26.3 °F 29.62 in WNW 1.0 mph 3.0 mph 90% 0.00 in 0 W/m2
00:13 28.9 °F 26.3 °F 29.62 in WNW 1.0 mph 1.0 mph 90% 0.00 in 0 W/m2
00:19 28.9 °F 26.3 °F 29.62 in WNW 1.0 mph 3.0 mph 90% 0.00 in 0 W/m2
00:26 28.9 °F 26.3 °F 29.62 in WNW 1.0 mph 3.0 mph 90% 0.00 in 0 W/m2
00:32 28.9 °F 26.3 °F 29.62 in WNW 1.0 mph 2.0 mph 90% 0.00 in 0 W/m2
00:38 28.9 °F 26.3 °F 29.62 in WNW 1.0 mph 2.0 mph 90% 0.00 in 0 W/m2
00:44 28.9 °F 26.3 °F 29.62 in WNW 1.0 mph 3.0 mph 90% 0.00 in 0 W/m2
00:50 28.9 °F 26.6 °F 29.62 in WNW 1.0 mph 1.0 mph 91% 0.00 in 0 W/m2
00:56 28.9 °F 26.6 °F 29.62 in WNW 1.0 mph 2.0 mph 91% 0.00 in 0 W/m2
01:02 28.9 °F 26.6 °F 29.62 in WNW 1.0 mph 2.0 mph 91% 0.00 in 0 W/m2
01:08 28.8 °F 26.5 °F 29.62 in West 1.0 mph 2.0 mph 91% 0.00 in 0 W/m2
01:13 28.8 °F 26.5 °F 29.62 in NW 1.0 mph 3.0 mph 91% 0.00 in 0 W/m2
01:20 28.8 °F 26.5 °F 29.62 in NW 1.0 mph 2.0 mph 91% 0.00 in 0 W/m2
01:26 28.7 °F 26.4 °F 29.62 in NW 1.0 mph 2.0 mph 91% 0.00 in 0 W/m2
01:32 28.7 °F 26.4 °F 29.62 in NW 2.0 mph 2.0 mph 91% 0.00 in 0 W/m2
01:38 28.7 °F 26.7 °F 29.62 in NW 1.0 mph 2.0 mph 92% 0.00 in 0 W/m2
01:44 28.7 °F 26.7 °F 29.62 in NW 1.0 mph 2.0 mph 92% 0.00 in 0 W/m2
01:49 28.7 °F 26.7 °F 29.62 in NW 2.0 mph 4.0 mph 92% 0.00 in 0 W/m2
01:56 28.7 °F 26.7 °F 29.62 in NW 2.0 mph 4.0 mph 92% 0.00 in 0 W/m2
02:02 28.8 °F 26.8 °F 29.62 in NW 1.0 mph 1.0 mph 92% 0.00 in 0 W/m2
02:10 28.8 °F 26.8 °F 29.62 in NW 1.0 mph 1.0 mph 92% 0.00 in 0 W/m2
02:15 28.8 °F 26.8 °F 29.63 in NW 1.0 mph 3.0 mph 92% 0.00 in 0 W/m2
02:22 28.9 °F 26.9 °F 29.63 in NW 1.0 mph 1.0 mph 92% 0.00 in 0 W/m2
02:28 28.8 °F 26.8 °F 29.63 in NW 1.0 mph 4.0 mph 92% 0.00 in 0 W/m2
02:33 28.9 °F 26.9 °F 29.63 in NW 1.0 mph 1.0 mph 92% 0.00 in 0 W/m2
02:40 28.9 °F 26.9 °F 29.63 in Calm     92% 0.00 in 0 W/m2
02:46 28.9 °F 26.9 °F 29.63 in WSW 1.0 mph 1.0 mph 92% 0.00 in 0 W/m2
02:52 28.9 °F 27.1 °F 29.63 in WNW 1.0 mph 1.0 mph 93% 0.00 in 0 W/m2
02:58 29.0 °F 27.2 °F 29.63 in WSW 2.0 mph 5.0 mph 93% 0.00 in 0 W/m2
03:04 29.0 °F 27.2 °F 29.63 in WSW 1.0 mph 1.0 mph 93% 0.00 in 0 W/m2
03:10 29.1 °F 27.3 °F 29.63 in NW 1.0 mph 1.0 mph 93% 0.00 in 0 W/m2
03:15 29.1 °F 27.3 °F 29.63 in NW 1.0 mph 2.0 mph 93% 0.00 in 0 W/m2
03:22 29.1 °F 27.3 °F 29.63 in WSW 2.0 mph 2.0 mph 93% 0.00 in 0 W/m2
03:28 29.2 °F 27.4 °F 29.63 in WSW 2.0 mph 2.0 mph 93% 0.00 in 0 W/m2
03:34 29.3 °F 27.5 °F 29.64 in WSW 2.0 mph 3.0 mph 93% 0.00 in 0 W/m2
03:40 29.3 °F 27.5 °F 29.64 in WNW 1.0 mph 3.0 mph 93% 0.00 in 0 W/m2
03:46 29.5 °F 27.7 °F 29.64 in West 1.0 mph 3.0 mph 93% 0.00 in 0 W/m2
03:52 29.5 °F 27.7 °F 29.64 in West 1.0 mph 1.0 mph 93% 0.00 in 0 W/m2
03:58 29.6 °F 27.8 °F 29.64 in Calm   3.0 mph 93% 0.00 in 0 W/m2
04:04 29.6 °F 27.8 °F 29.64 in WNW 1.0 mph 1.0 mph 93% 0.00 in 0 W/m2
04:10 29.7 °F 27.9 °F 29.64 in WNW 1.0 mph 1.0 mph 93% 0.00 in 0 W/m2
04:16 29.8 °F 28.0 °F 29.64 in WNW 1.0 mph 3.0 mph 93% 0.00 in 0 W/m2
04:22 29.8 °F 28.0 °F 29.64 in WNW 1.0 mph 3.0 mph 93% 0.00 in 0 W/m2
04:28 29.8 °F 28.0 °F 29.64 in West 1.0 mph 3.0 mph 93% 0.00 in 0 W/m2
04:34 29.9 °F 28.1 °F 29.64 in West 1.0 mph 2.0 mph 93% 0.00 in 0 W/m2
04:39 29.9 °F 28.1 °F 29.64 in WSW 1.0 mph 2.0 mph 93% 0.00 in 0 W/m2
04:46 30.0 °F 28.2 °F 29.64 in WSW 1.0 mph 2.0 mph 93% 0.00 in 0 W/m2
04:52 30.0 °F 28.2 °F 29.64 in WSW 1.0 mph 1.0 mph 93% 0.00 in 0 W/m2
04:58 30.0 °F 28.2 °F 29.64 in WSW 1.0 mph 1.0 mph 93% 0.00 in 0 W/m2
05:04 30.0 °F 28.2 °F 29.64 in WSW 1.0 mph 2.0 mph 93% 0.00 in 0 W/m2
05:09 30.0 °F 28.2 °F 29.64 in WSW 1.0 mph 1.0 mph 93% 0.00 in 0 W/m2
05:16 30.1 °F 28.3 °F 29.65 in WSW 1.0 mph 2.0 mph 93% 0.00 in 0 W/m2
05:22 30.1 °F 28.3 °F 29.65 in WSW 1.0 mph 4.0 mph 93% 0.00 in 0 W/m2
05:28 30.1 °F 28.3 °F 29.65 in WSW 1.0 mph 4.0 mph 93% 0.00 in 0 W/m2
05:34 30.2 °F 28.4 °F 29.65 in Calm   1.0 mph 93% 0.00 in 0 W/m2
05:40 30.3 °F 28.5 °F 29.65 in Calm   2.0 mph 93% 0.00 in 0 W/m2
05:46 30.4 °F 28.6 °F 29.65 in Calm   2.0 mph 93% 0.00 in 0 W/m2
05:52 30.4 °F 28.6 °F 29.65 in WSW 1.0 mph 1.0 mph 93% 0.00 in 0 W/m2
05:58 30.5 °F 28.7 °F 29.65 in WSW 1.0 mph 1.0 mph 93% 0.00 in 0 W/m2
06:04 30.5 °F 28.7 °F 29.65 in WSW 1.0 mph 3.0 mph 93% 0.00 in 0 W/m2
06:10 30.5 °F 28.7 °F 29.65 in WSW 1.0 mph 1.0 mph 93% 0.00 in 0 W/m2
06:16 30.5 °F 28.7 °F 29.65 in WSW 1.0 mph 1.0 mph 93% 0.00 in 0 W/m2
06:22 30.5 °F 28.7 °F 29.65 in SW 1.0 mph 1.0 mph 93% 0.00 in 0 W/m2
06:28 30.6 °F 29.1 °F 29.65 in WSW 2.0 mph 2.0 mph 94% 0.00 in 0 W/m2
06:33 30.7 °F 29.2 °F 29.65 in WSW 1.0 mph 2.0 mph 94% 0.00 in 0 W/m2
06:40 30.8 °F 29.3 °F 29.65 in West 1.0 mph 1.0 mph 94% 0.00 in 0 W/m2
06:46 31.0 °F 29.5 °F 29.65 in West 2.0 mph 4.0 mph 94% 0.00 in 0 W/m2
06:52 31.1 °F 29.6 °F 29.65 in NW 2.0 mph 2.0 mph 94% 0.00 in 0 W/m2
06:58 31.2 °F 29.7 °F 29.65 in WSW 1.0 mph 3.0 mph 94% 0.00 in 0 W/m2
07:04 31.4 °F 29.9 °F 29.65 in WSW 2.0 mph 2.0 mph 94% 0.00 in 0 W/m2
07:10 31.5 °F 30.0 °F 29.65 in WSW 2.0 mph 2.0 mph 94% 0.00 in 0 W/m2
07:16 31.7 °F 30.2 °F 29.66 in West 2.0 mph 3.0 mph 94% 0.00 in 0 W/m2
07:22 31.8 °F 30.3 °F 29.66 in WSW 2.0 mph 3.0 mph 94% 0.00 in 0 W/m2
07:28 31.8 °F 30.3 °F 29.67 in WNW 2.0 mph 3.0 mph 94% 0.00 in 0 W/m2
07:34 31.8 °F 30.3 °F 29.67 in West 2.0 mph 3.0 mph 94% 0.00 in 0 W/m2
07:40 31.8 °F 30.0 °F 29.66 in West 2.0 mph 2.0 mph 93% 0.00 in 0 W/m2
07:46 31.8 °F 30.0 °F 29.66 in WNW 2.0 mph 2.0 mph 93% 0.00 in 0 W/m2
07:52 31.8 °F 30.3 °F 29.66 in WSW 1.0 mph 1.0 mph 94% 0.00 in 5 W/m2
07:58 31.8 °F 30.3 °F 29.67 in West 2.0 mph 4.0 mph 94% 0.00 in 5 W/m2
08:03 31.8 °F 30.3 °F 29.67 in NW 1.0 mph 2.0 mph 94% 0.00 in 7 W/m2
08:10 31.8 °F 30.3 °F 29.67 in West 2.0 mph 2.0 mph 94% 0.00 in 7 W/m2
08:16 31.8 °F 30.0 °F 29.67 in West 2.0 mph 3.0 mph 93% 0.00 in 12 W/m2
08:22 31.9 °F 30.4 °F 29.67 in WNW 2.0 mph 3.0 mph 94% 0.00 in 12 W/m2
08:28 31.8 °F 30.3 °F 29.67 in West 3.0 mph 8.0 mph 94% 0.00 in 16 W/m2
08:34 31.9 °F 30.4 °F 29.67 in WNW 3.0 mph 5.0 mph 94% 0.00 in 18 W/m2
08:40 31.9 °F 30.4 °F 29.67 in NW 2.0 mph 2.0 mph 94% 0.00 in 25 W/m2
08:45 32.1 °F 30.3 °F 29.66 in WNW 3.0 mph 4.0 mph 93% 0.00 in 30 W/m2
08:52 32.1 °F 30.3 °F 29.66 in West 3.0 mph 3.0 mph 93% 0.00 in 28 W/m2
08:58 32.2 °F 30.4 °F 29.66 in WNW 2.0 mph 3.0 mph 93% 0.00 in 83 W/m2
09:04 32.4 °F 30.6 °F 29.65 in West 2.0 mph 5.0 mph 93% 0.00 in 63 W/m2
09:10 32.5 °F 30.7 °F 29.66 in West 2.0 mph 2.0 mph 93% 0.00 in 53 W/m2
09:16 32.6 °F 30.8 °F 29.66 in WNW 1.0 mph 2.0 mph 93% 0.00 in 63 W/m2
09:22 32.7 °F 30.6 °F 29.66 in WSW 2.0 mph 4.0 mph 92% 0.00 in 111 W/m2
09:28 32.8 °F 30.7 °F 29.66 in WSW 2.0 mph 4.0 mph 92% 0.00 in 91 W/m2
09:34 33.0 °F 30.9 °F 29.66 in WSW 2.0 mph 4.0 mph 92% 0.00 in 109 W/m2
09:40 33.1 °F 31.0 °F 29.66 in West 2.0 mph 2.0 mph 92% 0.00 in 107 W/m2
09:45 33.1 °F 31.0 °F 29.66 in NW 2.0 mph 7.0 mph 92% 0.00 in 83 W/m2
09:52 33.1 °F 31.0 °F 29.67 in West 2.0 mph 2.0 mph 92% 0.00 in 62 W/m2
09:58 33.1 °F 30.8 °F 29.67 in WSW 2.0 mph 6.0 mph 91% 0.00 in 63 W/m2
10:03 33.1 °F 30.8 °F 29.67 in West 3.0 mph 3.0 mph 91% 0.00 in 63 W/m2
10:10 33.1 °F 30.8 °F 29.66 in West 2.0 mph 2.0 mph 91% 0.00 in 95 W/m2
10:15 33.2 °F 30.9 °F 29.66 in WNW 2.0 mph 3.0 mph 91% 0.00 in 102 W/m2
10:22 33.3 °F 31.0 °F 29.66 in WSW 2.0 mph 5.0 mph 91% 0.00 in 69 W/m2
10:28 33.3 °F 31.0 °F 29.66 in West 3.0 mph 5.0 mph 91% 0.00 in 72 W/m2
10:34 33.4 °F 31.1 °F 29.66 in WSW 2.0 mph 6.0 mph 91% 0.00 in 84 W/m2
10:42 33.3 °F 31.0 °F 29.65 in WNW 2.0 mph 2.0 mph 91% 0.00 in 65 W/m2
10:48 33.4 °F 31.3 °F 29.65 in WSW 1.0 mph 2.0 mph 92% 0.00 in 77 W/m2
10:53 33.3 °F 31.2 °F 29.65 in West 2.0 mph 2.0 mph 92% 0.00 in 79 W/m2
11:00 33.4 °F 31.3 °F 29.65 in WSW 2.0 mph 2.0 mph 92% 0.00 in 91 W/m2
11:06 33.5 °F 31.4 °F 29.64 in SW 2.0 mph 2.0 mph 92% 0.00 in 142 W/m2
11:12 33.8 °F 31.7 °F 29.64 in WSW 2.0 mph 2.0 mph 92% 0.00 in 135 W/m2
11:18 33.9 °F 31.8 °F 29.63 in West 2.0 mph 3.0 mph 92% 0.00 in 216 W/m2
11:23 34.1 °F 31.7 °F 29.63 in West 2.0 mph 2.0 mph 91% 0.00 in 216 W/m2
11:30 34.3 °F 31.9 °F 29.62 in West 2.0 mph 2.0 mph 91% 0.00 in 188 W/m2
11:36 34.9 °F 32.5 °F 29.62 in West 2.0 mph 2.0 mph 91% 0.00 in 243 W/m2
11:42 35.3 °F 32.7 °F 29.62 in West 2.0 mph 7.0 mph 90% 0.00 in 239 W/m2
11:48 35.4 °F 32.8 °F 29.62 in West 3.0 mph 7.0 mph 90% 0.00 in 200 W/m2
11:53 35.5 °F 32.9 °F 29.62 in West 3.0 mph 3.0 mph 90% 0.10 in 181 W/m2
12:00 35.5 °F 32.6 °F 29.62 in WSW 2.0 mph 2.0 mph 89% 0.10 in 151 W/m2
12:06 35.4 °F 32.5 °F 29.62 in West 3.0 mph 3.0 mph 89% 0.15 in 186 W/m2
12:12 35.4 °F 32.5 °F 29.63 in West 3.0 mph 3.0 mph 89% 0.14 in 139 W/m2
12:18 35.4 °F 32.5 °F 29.63 in West 3.0 mph 3.0 mph 89% 0.08 in 132 W/m2
12:26 35.2 °F 32.3 °F 29.62 in WNW 3.0 mph 3.0 mph 89% 0.04 in 65 W/m2
12:32 35.2 °F 32.6 °F 29.62 in WNW 2.0 mph 2.0 mph 90% 0.04 in 79 W/m2
12:38 35.2 °F 32.6 °F 29.62 in WSW 2.0 mph 3.0 mph 90% 0.04 in 120 W/m2
12:44 35.5 °F 32.9 °F 29.61 in WSW 3.0 mph 3.0 mph 90% 0.04 in 167 W/m2
12:50 36.0 °F 33.4 °F 29.60 in SW 2.0 mph 2.0 mph 90% 0.00 in 118 W/m2
12:55 36.1 °F 33.5 °F 29.60 in WSW 1.0 mph 2.0 mph 90% 0.00 in 105 W/m2
13:02 36.1 °F 33.2 °F 29.60 in SW 2.0 mph 2.0 mph 89% 0.00 in 69 W/m2
13:08 36.1 °F 33.2 °F 29.60 in WSW 2.0 mph 4.0 mph 89% 0.00 in 70 W/m2
13:14 36.1 °F 33.2 °F 29.61 in West 2.0 mph 3.0 mph 89% 0.00 in 56 W/m2
13:20 36.1 °F 33.2 °F 29.62 in WSW 3.0 mph 3.0 mph 89% 0.00 in 53 W/m2
13:25 36.2 °F 33.3 °F 29.62 in SW 3.0 mph 4.0 mph 89% 0.00 in 53 W/m2
13:32 36.2 °F 33.3 °F 29.61 in West 3.0 mph 3.0 mph 89% 0.00 in 70 W/m2
13:38 36.3 °F 33.4 °F 29.60 in SW 2.0 mph 3.0 mph 89% 0.00 in 76 W/m2
13:44 36.4 °F 33.5 °F 29.61 in WSW 1.0 mph 4.0 mph 89% 0.00 in 81 W/m2
13:50 36.5 °F 33.6 °F 29.62 in WSW 2.0 mph 2.0 mph 89% 0.00 in 60 W/m2
13:56 36.6 °F 33.7 °F 29.62 in West 2.0 mph 6.0 mph 89% 0.00 in 76 W/m2
14:02 36.7 °F 33.8 °F 29.62 in SSW 2.0 mph 2.0 mph 89% 0.00 in 100 W/m2
14:08 36.8 °F 33.9 °F 29.61 in WSW 2.0 mph 3.0 mph 89% 0.00 in 74 W/m2
14:14 36.9 °F 34.0 °F 29.61 in WSW 1.0 mph 2.0 mph 89% 0.00 in 83 W/m2
14:19 37.0 °F 34.1 °F 29.61 in SW 2.0 mph 3.0 mph 89% 0.00 in 93 W/m2
14:26 37.2 °F 34.3 °F 29.60 in WNW 2.0 mph 3.0 mph 89% 0.00 in 86 W/m2
14:32 37.3 °F 34.1 °F 29.60 in NW 1.0 mph 2.0 mph 88% 0.00 in 88 W/m2
14:38 37.5 °F 34.6 °F 29.59 in NW 1.0 mph 2.0 mph 89% 0.00 in 93 W/m2
14:44 37.7 °F 34.5 °F 29.59 in WNW 1.0 mph 3.0 mph 88% 0.00 in 62 W/m2
14:49 37.7 °F 34.5 °F 29.59 in WNW 1.0 mph 1.0 mph 88% 0.00 in 62 W/m2
14:55 37.8 °F 34.6 °F 29.59 in WSW 1.0 mph 2.0 mph 88% 0.00 in 54 W/m2
15:02 37.8 °F 34.6 °F 29.58 in WSW 1.0 mph 1.0 mph 88% 0.00 in 51 W/m2
15:08 37.8 °F 34.6 °F 29.57 in Calm   1.0 mph 88% 0.00 in 33 W/m2
15:13 37.8 °F 34.6 °F 29.59 in Calm     88% 0.00 in 23 W/m2
15:20 37.8 °F 34.6 °F 29.59 in Calm     88% 0.00 in 39 W/m2
15:26 37.9 °F 34.7 °F 29.59 in Calm   3.0 mph 88% 0.00 in 53 W/m2
15:32 37.9 °F 34.7 °F 29.59 in South 1.0 mph 1.0 mph 88% 0.00 in 40 W/m2
15:38 37.9 °F 34.4 °F 29.58 in WSW 1.0 mph 1.0 mph 87% 0.00 in 37 W/m2
15:43 37.9 °F 34.4 °F 29.59 in SSW 2.0 mph 2.0 mph 87% 0.00 in 32 W/m2
15:50 37.9 °F 34.4 °F 29.59 in WSW 1.0 mph 1.0 mph 87% 0.00 in 25 W/m2
15:56 37.8 °F 34.3 °F 29.59 in SW 1.0 mph 1.0 mph 87% 0.00 in 19 W/m2
16:02 37.8 °F 34.3 °F 29.58 in SW 1.0 mph 2.0 mph 87% 0.00 in 18 W/m2
16:08 37.7 °F 34.2 °F 29.58 in SW 1.0 mph 2.0 mph 87% 0.00 in 14 W/m2
16:14 37.7 °F 34.2 °F 29.59 in SW 1.0 mph 1.0 mph 87% 0.00 in 12 W/m2
16:19 37.6 °F 34.1 °F 29.59 in SW 1.0 mph 1.0 mph 87% 0.00 in 5 W/m2
16:26 37.6 °F 34.1 °F 29.57 in SSE 2.0 mph 4.0 mph 87% 0.00 in 7 W/m2
16:32 37.5 °F 34.0 °F 29.58 in SSE 2.0 mph 2.0 mph 87% 0.00 in 5 W/m2
16:38 37.4 °F 34.2 °F 29.58 in South 2.0 mph 3.0 mph 88% 0.00 in 5 W/m2
16:44 37.4 °F 34.2 °F 29.58 in SSW 1.0 mph 2.0 mph 88% 0.00 in 0 W/m2
16:50 37.3 °F 34.1 °F 29.57 in Calm     88% 0.00 in 0 W/m2
16:56 37.1 °F 34.2 °F 29.58 in Calm     89% 0.00 in 0 W/m2
17:02 36.8 °F 34.1 °F 29.57 in Calm     90% 0.00 in 0 W/m2
17:08 36.7 °F 34.0 °F 29.57 in Calm     90% 0.00 in 0 W/m2
17:13 36.7 °F 34.3 °F 29.57 in Calm     91% 0.00 in 0 W/m2
17:19 36.6 °F 34.2 °F 29.57 in Calm   1.0 mph 91% 0.00 in 0 W/m2
17:26 36.6 °F 34.2 °F 29.57 in Calm   1.0 mph 91% 0.00 in 0 W/m2
17:32 36.6 °F 34.2 °F 29.57 in Calm     91% 0.00 in 0 W/m2
17:38 36.4 °F 34.0 °F 29.56 in Calm     91% 0.00 in 0 W/m2
17:43 36.4 °F 34.0 °F 29.56 in Calm     91% 0.00 in 0 W/m2
17:49 36.3 °F 33.9 °F 29.56 in Calm     91% 0.00 in 0 W/m2
17:56 36.1 °F 33.7 °F 29.56 in Calm     91% 0.00 in 0 W/m2
18:02 36.1 °F 33.7 °F 29.55 in Calm   2.0 mph 91% 0.00 in 0 W/m2
18:08 36.1 °F 33.7 °F 29.55 in SSW 1.0 mph 3.0 mph 91% 0.00 in 0 W/m2
18:14 36.1 °F 33.7 °F 29.55 in SSE 1.0 mph 3.0 mph 91% 0.00 in 0 W/m2
18:20 36.0 °F 33.4 °F 29.54 in Calm   1.0 mph 90% 0.00 in 0 W/m2
18:25 35.9 °F 33.3 °F 29.54 in Calm   1.0 mph 90% 0.00 in 0 W/m2
18:32 35.7 °F 33.1 °F 29.54 in Calm     90% 0.00 in 0 W/m2
18:38 35.3 °F 32.7 °F 29.54 in Calm     90% 0.00 in 0 W/m2
18:44 35.1 °F 32.7 °F 29.52 in Calm     91% 0.00 in 0 W/m2
18:50 34.7 °F 32.3 °F 29.52 in Calm     91% 0.00 in 0 W/m2
18:55 34.3 °F 32.2 °F 29.52 in Calm     92% 0.00 in 0 W/m2
19:02 34.1 °F 32.0 °F 29.52 in Calm     92% 0.00 in 0 W/m2
19:08 34.0 °F 31.9 °F 29.52 in Calm     92% 0.00 in 0 W/m2
19:14 34.1 °F 32.3 °F 29.51 in Calm   2.0 mph 93% 0.00 in 0 W/m2
19:19 34.0 °F 31.9 °F 29.51 in SSE 1.0 mph 1.0 mph 92% 0.00 in 0 W/m2
19:26 34.3 °F 32.5 °F 29.51 in Calm   1.0 mph 93% 0.00 in 0 W/m2
19:32 34.3 °F 32.5 °F 29.51 in Calm   1.0 mph 93% 0.00 in 0 W/m2
19:38 34.3 °F 32.5 °F 29.50 in Calm   2.0 mph 93% 0.00 in 0 W/m2
19:43 34.7 °F 32.9 °F 29.50 in Calm     93% 0.00 in 0 W/m2
19:49 34.8 °F 33.0 °F 29.50 in ENE 1.0 mph 1.0 mph 93% 0.00 in 0 W/m2
19:56 34.9 °F 33.1 °F 29.49 in Calm   1.0 mph 93% 0.00 in 0 W/m2
20:02 35.1 °F 33.3 °F 29.49 in Calm     93% 0.00 in 0 W/m2
20:08 35.3 °F 33.5 °F 29.49 in Calm     93% 0.00 in 0 W/m2
20:14 35.3 °F 33.5 °F 29.49 in Calm   1.0 mph 93% 0.00 in 0 W/m2
20:20 35.4 °F 33.6 °F 29.50 in Calm     93% 0.00 in 0 W/m2
20:26 35.4 °F 33.3 °F 29.50 in Calm   2.0 mph 92% 0.00 in 0 W/m2
20:32 35.4 °F 33.3 °F 29.49 in Calm     92% 0.00 in 0 W/m2
20:38 35.2 °F 33.1 °F 29.49 in Calm   1.0 mph 92% 0.00 in 0 W/m2
20:43 35.3 °F 33.2 °F 29.49 in ENE 1.0 mph 1.0 mph 92% 0.00 in 0 W/m2
20:50 35.4 °F 33.3 °F 29.49 in ENE 1.0 mph 1.0 mph 92% 0.00 in 0 W/m2
20:56 35.5 °F 33.4 °F 29.49 in Calm   2.0 mph 92% 0.00 in 0 W/m2
21:02 35.7 °F 33.6 °F 29.49 in Calm   1.0 mph 92% 0.00 in 0 W/m2
21:08 35.6 °F 33.5 °F 29.49 in Calm   1.0 mph 92% 0.00 in 0 W/m2
21:14 35.5 °F 33.4 °F 29.48 in Calm   2.0 mph 92% 0.00 in 0 W/m2
21:19 35.4 °F 33.3 °F 29.48 in Calm     92% 0.00 in 0 W/m2
21:26 35.4 °F 33.3 °F 29.48 in Calm     92% 0.00 in 0 W/m2
21:32 35.5 °F 33.4 °F 29.48 in Calm     92% 0.00 in 0 W/m2
21:38 35.6 °F 33.5 °F 29.48 in Calm     92% 0.00 in 0 W/m2
21:44 35.5 °F 33.4 °F 29.48 in Calm     92% 0.00 in 0 W/m2
21:50 35.4 °F 33.3 °F 29.47 in Calm     92% 0.00 in 0 W/m2
21:55 35.4 °F 33.3 °F 29.47 in Calm     92% 0.00 in 0 W/m2
22:02 35.3 °F 33.2 °F 29.47 in ENE 1.0 mph 1.0 mph 92% 0.00 in 0 W/m2
22:08 35.3 °F 33.5 °F 29.46 in ENE 1.0 mph 1.0 mph 93% 0.00 in 0 W/m2
22:13 35.3 °F 33.5 °F 29.46 in Calm   1.0 mph 93% 0.00 in 0 W/m2
22:16 35.3 °F 33.5 °F 29.46 in Calm   1.0 mph 93% 0.00 in 0 W/m2
22:22 35.0 °F 32.9 °F 29.45 in ENE 1.0 mph 1.0 mph 92% 0.00 in 0 W/m2
22:28 34.6 °F 32.5 °F 29.44 in ENE 1.0 mph 5.0 mph 92% 0.00 in 0 W/m2
22:33 34.6 °F 32.8 °F 29.44 in NE 1.0 mph 2.0 mph 93% 0.00 in 0 W/m2
22:39 34.4 °F 32.3 °F 29.43 in NE 1.0 mph 1.0 mph 92% 0.00 in 0 W/m2
22:46 34.1 °F 32.0 °F 29.44 in NE 1.0 mph 2.0 mph 92% 0.00 in 0 W/m2
22:52 33.7 °F 31.6 °F 29.44 in NE 1.0 mph 1.0 mph 92% 0.00 in 0 W/m2
22:58 33.6 °F 31.5 °F 29.44 in Calm   1.0 mph 92% 0.00 in 0 W/m2
23:04 33.3 °F 31.2 °F 29.43 in Calm   3.0 mph 92% 0.00 in 0 W/m2
23:10 33.3 °F 31.5 °F 29.44 in ENE 1.0 mph 1.0 mph 93% 0.00 in 0 W/m2
23:15 33.2 °F 31.4 °F 29.43 in ENE 1.0 mph 1.0 mph 93% 0.00 in 0 W/m2
23:22 33.0 °F 31.2 °F 29.43 in ENE 1.0 mph 4.0 mph 93% 0.00 in 0 W/m2
23:28 32.8 °F 31.0 °F 29.43 in ENE 1.0 mph 4.0 mph 93% 0.00 in 0 W/m2
23:34 32.7 °F 30.9 °F 29.43 in Calm     93% 0.00 in 0 W/m2
23:40 32.5 °F 30.7 °F 29.43 in Calm     93% 0.00 in 0 W/m2
23:45 32.4 °F 30.6 °F 29.43 in Calm     93% 0.00 in 0 W/m2
23:52 32.5 °F 30.7 °F 29.42 in Calm     93% 0.00 in 0 W/m2
23:58 32.7 °F 30.9 °F 29.42 in Calm     93% 0.00 in 0 W/m2
Country Meadow, Clay, NY, USA
Compliments of Weather Underground - 2 mb